createdAt,value
2023-02-04T00:01:57.054Z,6.44
2023-02-04T00:04:01.859Z,6.45
2023-02-04T00:06:07.061Z,6.46
2023-02-04T00:08:12.449Z,6.43
2023-02-04T00:10:17.216Z,6.48
2023-02-04T00:12:25.096Z,6.55
2023-02-04T00:14:29.927Z,6.48
2023-02-04T00:16:34.755Z,6.55
2023-02-04T00:18:42.048Z,6.62
2023-02-04T00:20:46.937Z,6.65
2023-02-04T00:22:51.828Z,6.66
2023-02-04T00:24:56.675Z,6.64
2023-02-04T00:27:01.537Z,6.66
2023-02-04T00:29:08.990Z,6.65
2023-02-04T00:31:13.916Z,6.67
2023-02-04T00:33:18.839Z,6.65
2023-02-04T00:35:23.830Z,6.61
2023-02-04T00:37:30.764Z,6.50
2023-02-04T00:39:35.653Z,6.48
2023-02-04T00:41:40.668Z,6.50
2023-02-04T00:43:45.588Z,6.47
2023-02-04T00:45:53.054Z,6.47
2023-02-04T00:47:57.916Z,6.48
2023-02-04T00:50:02.818Z,6.40
2023-02-04T00:52:08.212Z,6.37
2023-02-04T00:54:13.113Z,6.37
2023-02-04T00:56:18.121Z,6.35
2023-02-04T00:58:22.965Z,6.33
2023-02-04T01:00:28.198Z,6.33
2023-02-04T01:02:35.820Z,6.29
2023-02-04T01:04:41.375Z,6.26
2023-02-04T01:06:46.307Z,6.20
2023-02-04T01:08:51.107Z,6.16
2023-02-04T01:10:55.951Z,6.17
2023-02-04T01:13:01.044Z,6.16
2023-02-04T01:15:05.686Z,6.16
2023-02-04T01:17:10.927Z,6.18
2023-02-04T01:19:18.529Z,6.16
2023-02-04T01:21:23.482Z,6.15
2023-02-04T01:23:28.434Z,6.14
2023-02-04T01:25:33.325Z,6.06
2023-02-04T01:27:38.342Z,6.02
2023-02-04T01:29:46.980Z,6.01
2023-02-04T01:31:51.904Z,6.04
2023-02-04T01:33:56.862Z,6.03
2023-02-04T01:36:04.305Z,6.06
2023-02-04T01:38:09.206Z,6.13
2023-02-04T01:40:15.356Z,6.16
2023-02-04T01:42:20.283Z,6.20
2023-02-04T01:44:25.145Z,6.23
2023-02-04T01:46:30.355Z,6.23
2023-02-04T01:48:35.516Z,6.25
2023-02-04T01:50:40.345Z,6.19
2023-02-04T01:52:48.868Z,6.13
2023-02-04T01:54:56.332Z,6.12
2023-02-04T01:57:01.450Z,6.13
2023-02-04T01:59:14.258Z,6.12
2023-02-04T02:01:37.193Z,6.12
2023-02-04T02:03:42.078Z,6.15
2023-02-04T02:05:49.284Z,6.17
2023-02-04T02:07:59.157Z,6.20
2023-02-04T02:10:05.165Z,6.14
2023-02-04T02:12:10.007Z,6.17
2023-02-04T02:14:15.457Z,6.13
2023-02-04T02:16:20.757Z,6.11
2023-02-04T02:18:25.692Z,6.12
2023-02-04T02:20:31.836Z,6.09
2023-02-04T02:22:43.379Z,6.08
2023-02-04T02:24:51.737Z,6.03
2023-02-04T02:26:58.562Z,5.97
2023-02-04T02:29:03.477Z,5.93
2023-02-04T02:31:08.871Z,5.94
2023-02-04T02:33:15.805Z,5.87
2023-02-04T02:35:21.552Z,5.77
2023-02-04T02:37:27.686Z,5.69
2023-02-04T02:39:32.547Z,5.66
2023-02-04T02:41:41.097Z,5.67
2023-02-04T02:43:45.912Z,5.69
2023-02-04T02:45:51.596Z,5.63
2023-02-04T02:47:57.028Z,5.65
2023-02-04T02:50:01.992Z,5.62
2023-02-04T02:52:07.350Z,5.65
2023-02-04T02:54:25.462Z,5.64
2023-02-04T02:56:32.920Z,5.61
2023-02-04T02:58:40.605Z,5.62
2023-02-04T03:00:45.662Z,5.58
2023-02-04T03:02:56.384Z,5.50
2023-02-04T03:05:02.702Z,5.41
2023-02-04T03:07:11.090Z,5.43
2023-02-04T03:09:16.404Z,5.42
2023-02-04T03:11:26.376Z,5.42
2023-02-04T03:13:31.922Z,5.40
2023-02-04T03:15:39.409Z,5.36
2023-02-04T03:17:44.832Z,5.32
2023-02-04T03:19:59.258Z,5.29
2023-02-04T03:22:06.000Z,5.25
2023-02-04T03:24:11.155Z,5.27
2023-02-04T03:26:15.917Z,5.25
2023-02-04T03:28:20.888Z,5.29
2023-02-04T03:30:26.612Z,5.33
2023-02-04T03:32:34.000Z,5.37
2023-02-04T03:34:38.855Z,5.34
2023-02-04T03:36:44.321Z,5.33
2023-02-04T03:38:49.124Z,5.35
2023-02-04T03:40:54.022Z,5.35
2023-02-04T03:42:58.857Z,5.40
2023-02-04T03:45:03.793Z,5.44
2023-02-04T03:47:09.035Z,5.51
2023-02-04T03:49:16.249Z,5.45
2023-02-04T03:51:21.093Z,5.41
2023-02-04T03:53:26.037Z,5.34
2023-02-04T03:55:32.428Z,5.37
2023-02-04T03:57:37.207Z,5.44
2023-02-04T03:59:42.251Z,5.44
2023-02-04T04:01:47.116Z,5.44
2023-02-04T04:03:54.646Z,5.50
2023-02-04T04:06:02.188Z,5.48
2023-02-04T04:08:07.330Z,5.48
2023-02-04T04:10:12.616Z,5.56
2023-02-04T04:12:17.495Z,5.59
2023-02-04T04:14:22.305Z,5.54
2023-02-04T04:16:27.169Z,5.43
2023-02-04T04:18:32.874Z,5.35
2023-02-04T04:20:37.768Z,5.33
2023-02-04T04:22:45.837Z,5.28
2023-02-04T04:24:50.853Z,5.18
2023-02-04T04:26:55.717Z,5.17
2023-02-04T04:29:00.551Z,5.16
2023-02-04T04:31:05.832Z,5.19
2023-02-04T04:33:10.410Z,5.08
2023-02-04T04:35:15.224Z,5.06
2023-02-04T04:37:20.105Z,5.06
2023-02-04T04:39:27.622Z,5.10
2023-02-04T04:41:32.475Z,5.18
2023-02-04T04:43:37.285Z,5.16
2023-02-04T04:45:42.086Z,5.21
2023-02-04T04:47:46.869Z,5.22
2023-02-04T04:49:51.748Z,5.30
2023-02-04T04:51:57.313Z,5.34
2023-02-04T04:54:02.307Z,5.37
2023-02-04T04:56:09.986Z,5.43
2023-02-04T04:58:14.810Z,5.40
2023-02-04T05:00:23.321Z,5.28
2023-02-04T05:02:28.205Z,5.25
2023-02-04T05:04:33.066Z,5.24
2023-02-04T05:06:37.945Z,5.21
2023-02-04T05:08:42.759Z,5.22
2023-02-04T05:10:48.020Z,5.18
2023-02-04T05:12:55.166Z,5.15
2023-02-04T05:15:00.159Z,5.19
2023-02-04T05:17:04.942Z,5.18
2023-02-04T05:19:09.792Z,5.16
2023-02-04T05:21:14.679Z,5.12
2023-02-04T05:23:19.942Z,5.10
2023-02-04T05:25:24.506Z,5.09
2023-02-04T05:27:29.354Z,5.10
2023-02-04T05:29:36.817Z,5.10
2023-02-04T05:31:41.674Z,5.12
2023-02-04T05:33:46.511Z,5.07
2023-02-04T05:35:51.374Z,5.09
2023-02-04T05:37:56.206Z,5.09
2023-02-04T05:40:01.349Z,5.09
2023-02-04T05:42:06.010Z,5.10
2023-02-04T05:44:10.812Z,5.10
2023-02-04T05:46:18.243Z,5.18
2023-02-04T05:48:23.090Z,5.07
2023-02-04T05:50:27.894Z,5.04
2023-02-04T05:52:46.462Z,5.01
2023-02-04T05:54:51.246Z,5.06
2023-02-04T05:56:56.056Z,5.12
2023-02-04T05:59:00.927Z,5.20
2023-02-04T06:01:06.801Z,5.20
2023-02-04T06:03:14.689Z,5.16
2023-02-04T06:05:19.709Z,5.08
2023-02-04T06:07:24.504Z,5.16
2023-02-04T06:09:29.361Z,5.26
2023-02-04T06:11:34.177Z,5.31
2023-02-04T06:13:39.029Z,5.24
2023-02-04T06:15:44.226Z,5.29
2023-02-04T06:17:49.105Z,5.33
2023-02-04T06:19:56.477Z,5.39
2023-02-04T06:22:01.333Z,5.50
2023-02-04T06:24:06.203Z,5.61
2023-02-04T06:26:11.088Z,5.63
2023-02-04T06:28:16.073Z,5.60
2023-02-04T06:30:21.817Z,5.51
2023-02-04T06:32:26.678Z,5.43
2023-02-04T06:34:31.600Z,5.33
2023-02-04T06:36:40.477Z,5.37
2023-02-04T06:38:45.401Z,5.47
2023-02-04T06:40:53.717Z,5.39
2023-02-04T06:42:58.653Z,4.91
2023-02-04T06:45:06.430Z,4.58
2023-02-04T06:47:11.422Z,4.36
2023-02-04T06:49:16.295Z,4.18
2023-02-04T06:51:21.148Z,4.07
2023-02-04T06:53:28.650Z,3.87
2023-02-04T06:55:34.062Z,3.80
2023-02-04T06:57:38.605Z,3.80
2023-02-04T06:59:43.827Z,3.75
2023-02-04T07:01:49.075Z,3.80
2023-02-04T07:03:53.955Z,3.67
2023-02-04T07:05:58.737Z,3.67
2023-02-04T07:08:03.643Z,3.68
2023-02-04T07:10:11.973Z,3.70
2023-02-04T07:12:16.918Z,3.72
2023-02-04T07:14:21.802Z,3.80
2023-02-04T07:16:26.621Z,3.86
2023-02-04T07:18:31.507Z,4.01
2023-02-04T07:20:36.538Z,4.08
2023-02-04T07:22:42.417Z,3.91
2023-02-04T07:24:47.436Z,3.97
2023-02-04T07:26:55.008Z,4.06
2023-02-04T07:28:59.815Z,4.09
2023-02-04T07:31:04.709Z,4.11
2023-02-04T07:33:09.654Z,4.16
2023-02-04T07:35:14.645Z,4.24
2023-02-04T07:37:20.672Z,4.18
2023-02-04T07:39:25.795Z,4.18
2023-02-04T07:41:30.388Z,4.12
2023-02-04T07:43:37.795Z,4.16
2023-02-04T07:45:42.933Z,4.27
2023-02-04T07:47:52.730Z,4.40
2023-02-04T07:49:58.795Z,4.45
2023-02-04T07:52:03.600Z,4.48
2023-02-04T07:54:08.451Z,4.58
2023-02-04T07:56:13.533Z,4.62
2023-02-04T07:58:18.375Z,4.46
2023-02-04T08:00:26.211Z,4.53
2023-02-04T08:02:31.146Z,4.61
2023-02-04T08:04:36.015Z,4.75
2023-02-04T08:06:40.974Z,4.86
2023-02-04T08:08:45.761Z,4.98
2023-02-04T08:10:50.660Z,5.12
2023-02-04T08:12:55.497Z,5.25
2023-02-04T08:15:01.491Z,4.94
2023-02-04T08:17:09.873Z,5.03
2023-02-04T08:19:19.086Z,5.11
2023-02-04T08:21:24.209Z,5.13
2023-02-04T08:23:29.075Z,5.22
2023-02-04T08:25:33.982Z,5.28
2023-02-04T08:27:38.817Z,5.10
2023-02-04T08:29:46.378Z,5.19
2023-02-04T08:31:51.332Z,5.33
2023-02-04T08:33:58.972Z,5.53
2023-02-04T08:36:03.814Z,5.68
2023-02-04T08:38:08.736Z,5.80
2023-02-04T08:40:16.959Z,5.77
2023-02-04T08:42:21.954Z,5.73
2023-02-04T08:44:26.868Z,5.66
2023-02-04T08:46:31.939Z,5.52
2023-02-04T08:48:36.573Z,5.45
2023-02-04T08:50:43.976Z,5.41
2023-02-04T08:52:48.811Z,5.38
2023-02-04T08:54:53.702Z,5.26
2023-02-04T08:56:58.521Z,5.32
2023-02-04T08:59:03.297Z,5.20
2023-02-04T09:01:08.236Z,5.30
2023-02-04T09:03:13.058Z,5.28
2023-02-04T09:05:18.048Z,5.36
2023-02-04T09:07:25.496Z,5.36
2023-02-04T09:09:30.373Z,5.57
2023-02-04T09:11:35.401Z,5.72
2023-02-04T09:13:43.544Z,5.90
2023-02-04T09:15:48.995Z,5.91
2023-02-04T09:18:01.488Z,5.79
2023-02-04T09:20:07.195Z,5.60
2023-02-04T09:22:13.396Z,5.60
2023-02-04T09:24:23.748Z,5.56
2023-02-04T09:26:28.620Z,5.49
2023-02-04T09:28:33.444Z,5.62
2023-02-04T09:30:38.927Z,5.73
2023-02-04T09:32:44.394Z,5.75
2023-02-04T09:34:48.954Z,5.59
2023-02-04T09:36:53.818Z,5.65
2023-02-04T09:38:58.870Z,5.67
2023-02-04T09:41:10.137Z,5.68
2023-02-04T09:43:20.289Z,5.68
2023-02-04T09:45:28.291Z,5.69
2023-02-04T09:47:33.929Z,5.62
2023-02-04T09:49:39.833Z,5.64
2023-02-04T09:51:45.788Z,5.63
2023-02-04T09:53:53.929Z,5.78
2023-02-04T09:55:59.165Z,5.79
2023-02-04T09:58:08.695Z,5.87
2023-02-04T10:00:20.484Z,5.89
2023-02-04T10:02:27.727Z,5.76
2023-02-04T10:04:32.634Z,5.73
2023-02-04T10:06:38.057Z,5.53
2023-02-04T10:08:46.566Z,5.27
2023-02-04T10:10:52.522Z,5.06
2023-02-04T10:13:01.748Z,5.11
2023-02-04T10:15:11.603Z,5.04
2023-02-04T10:17:20.050Z,4.99
2023-02-04T10:19:26.082Z,5.09
2023-02-04T10:21:36.904Z,5.21
2023-02-04T10:23:41.946Z,5.36
2023-02-04T10:25:46.798Z,5.51
2023-02-04T10:27:53.793Z,5.62
2023-02-04T10:29:59.522Z,5.57
2023-02-04T10:32:07.731Z,5.71
2023-02-04T10:34:19.093Z,5.82
2023-02-04T10:36:24.075Z,5.89
2023-02-04T10:38:28.970Z,6.09
2023-02-04T10:40:36.112Z,6.23
2023-02-04T10:42:53.367Z,6.32
2023-02-04T10:44:58.415Z,6.30
2023-02-04T10:47:07.242Z,6.40
2023-02-04T10:49:21.469Z,6.49
2023-02-04T10:51:26.626Z,6.56
2023-02-04T10:53:44.081Z,6.45
2023-02-04T10:55:51.438Z,6.38
2023-02-04T10:58:02.096Z,6.38
2023-02-04T11:00:09.746Z,6.11
2023-02-04T11:02:37.746Z,5.88
2023-02-04T11:04:42.612Z,5.82
2023-02-04T11:06:49.634Z,5.71
2023-02-04T11:08:55.456Z,5.96
2023-02-04T11:11:03.412Z,6.10
2023-02-04T11:13:09.824Z,6.30
2023-02-04T11:15:44.902Z,6.53
2023-02-04T11:18:06.180Z,6.73
2023-02-04T11:20:18.875Z,6.90
2023-02-04T11:22:26.110Z,6.83
2023-02-04T11:24:36.547Z,6.90
2023-02-04T11:26:42.774Z,6.79
2023-02-04T11:28:59.108Z,6.86
2023-02-04T11:31:06.301Z,6.89
2023-02-04T11:33:27.670Z,6.96
2023-02-04T11:35:33.997Z,7.06
2023-02-04T11:37:41.062Z,7.11
2023-02-04T11:39:48.185Z,7.16
2023-02-04T11:41:53.448Z,7.21
2023-02-04T11:43:59.140Z,6.95
2023-02-04T11:46:07.570Z,6.91
2023-02-04T11:48:17.448Z,6.73
2023-02-04T11:50:29.267Z,6.65
2023-02-04T11:52:37.738Z,6.74
2023-02-04T11:54:42.787Z,6.74
2023-02-04T11:56:48.503Z,6.75
2023-02-04T11:58:53.842Z,6.75
2023-02-04T12:00:58.742Z,6.85
2023-02-04T12:03:06.382Z,6.82
2023-02-04T12:05:16.132Z,6.78
2023-02-04T12:07:26.396Z,6.77
2023-02-04T12:09:33.088Z,6.82
2023-02-04T12:11:38.547Z,6.84
2023-02-04T12:13:56.598Z,6.91
2023-02-04T12:16:03.673Z,6.83
2023-02-04T12:18:10.304Z,6.66
2023-02-04T12:20:15.636Z,6.46
2023-02-04T12:22:23.208Z,6.29
2023-02-04T12:24:28.005Z,6.19
2023-02-04T12:26:32.987Z,6.07
2023-02-04T12:28:37.973Z,6.10
2023-02-04T12:30:43.038Z,6.23
2023-02-04T12:32:47.948Z,6.24
2023-02-04T12:34:52.776Z,6.28
2023-02-04T12:36:57.651Z,6.25
2023-02-04T12:39:05.103Z,6.26
2023-02-04T12:41:10.371Z,6.19
2023-02-04T12:43:15.304Z,6.17
2023-02-04T12:45:21.096Z,6.13
2023-02-04T12:47:26.175Z,6.14
2023-02-04T12:49:31.152Z,6.21
2023-02-04T12:51:36.243Z,6.30
2023-02-04T12:53:41.054Z,6.32
2023-02-04T12:55:48.848Z,6.35
2023-02-04T12:57:54.132Z,6.30
2023-02-04T13:00:00.514Z,6.35
2023-02-04T13:02:05.503Z,6.38
2023-02-04T13:04:10.352Z,6.44
2023-02-04T13:06:15.171Z,6.53
2023-02-04T13:08:22.142Z,6.57
2023-02-04T13:10:27.245Z,6.56
2023-02-04T13:12:36.257Z,6.62
2023-02-04T13:14:41.068Z,6.72
2023-02-04T13:16:45.923Z,6.76
2023-02-04T13:18:50.730Z,6.77
2023-02-04T13:20:55.672Z,6.87
2023-02-04T13:23:00.619Z,6.81
2023-02-04T13:25:05.469Z,6.92
2023-02-04T13:27:10.334Z,6.94
2023-02-04T13:29:17.869Z,7.06
2023-02-04T13:31:25.574Z,7.04
2023-02-04T13:33:31.470Z,6.97
2023-02-04T13:35:36.289Z,7.02
2023-02-04T13:37:41.152Z,7.05
2023-02-04T13:39:46.106Z,7.07
2023-02-04T13:41:50.974Z,6.97
2023-02-04T13:43:55.838Z,6.88
2023-02-04T13:46:04.413Z,6.98
2023-02-04T13:48:11.915Z,7.09
2023-02-04T13:50:16.800Z,7.15
2023-02-04T13:52:22.541Z,7.17
2023-02-04T13:54:27.734Z,7.25
2023-02-04T13:56:33.042Z,7.26
2023-02-04T13:58:43.760Z,7.31
2023-02-04T14:00:48.649Z,7.24
2023-02-04T14:02:56.759Z,7.19
2023-02-04T14:05:01.961Z,7.15
2023-02-04T14:07:06.654Z,6.95
2023-02-04T14:09:12.003Z,6.82
2023-02-04T14:11:16.938Z,6.86
2023-02-04T14:13:24.351Z,6.68
2023-02-04T14:15:30.155Z,6.73
2023-02-04T14:17:46.856Z,6.77
2023-02-04T14:19:56.150Z,6.71
2023-02-04T14:22:02.924Z,6.54
2023-02-04T14:24:08.120Z,6.52
2023-02-04T14:26:15.422Z,6.42
2023-02-04T14:28:24.256Z,6.49
2023-02-04T14:30:33.907Z,6.56
2023-02-04T14:32:39.014Z,6.63
2023-02-04T14:34:44.434Z,6.68
2023-02-04T14:36:51.884Z,6.69
2023-02-04T14:38:56.814Z,6.71
2023-02-04T14:41:01.786Z,6.70
2023-02-04T14:43:07.428Z,6.63
2023-02-04T14:45:14.416Z,6.51
2023-02-04T14:47:19.317Z,6.50
2023-02-04T14:49:24.265Z,6.39
2023-02-04T14:51:29.277Z,6.25
2023-02-04T14:53:36.816Z,6.25
2023-02-04T14:55:42.091Z,6.32
2023-02-04T14:57:47.086Z,6.32
2023-02-04T14:59:51.968Z,6.29
2023-02-04T15:01:57.016Z,6.13
2023-02-04T15:04:01.701Z,6.13
2023-02-04T15:06:07.061Z,6.10
2023-02-04T15:08:12.137Z,6.06
2023-02-04T15:10:20.097Z,5.97
2023-02-04T15:12:25.661Z,5.89
2023-02-04T15:14:30.550Z,5.82
2023-02-04T15:16:35.561Z,5.92
2023-02-04T15:18:42.351Z,6.08
2023-02-04T15:20:47.164Z,6.16
2023-02-04T15:22:56.509Z,6.07
2023-02-04T15:25:01.395Z,6.09
2023-02-04T15:27:09.239Z,6.24
2023-02-04T15:29:14.067Z,6.34
2023-02-04T15:31:19.131Z,6.43
2023-02-04T15:33:24.001Z,6.35
2023-02-04T15:35:28.985Z,6.33
2023-02-04T15:37:35.749Z,6.26
2023-02-04T15:39:41.139Z,6.22
2023-02-04T15:41:46.009Z,6.14
2023-02-04T15:43:56.072Z,6.09
2023-02-04T15:46:01.324Z,6.08
2023-02-04T15:48:06.454Z,6.04
2023-02-04T15:50:15.166Z,5.99
2023-02-04T15:52:25.007Z,5.99
2023-02-04T15:54:31.793Z,6.00
2023-02-04T15:56:36.839Z,5.88
2023-02-04T15:58:41.734Z,5.87
2023-02-04T16:00:51.742Z,5.86
2023-02-04T16:02:56.582Z,5.70
2023-02-04T16:05:01.587Z,5.63
2023-02-04T16:07:08.498Z,5.62
2023-02-04T16:09:13.422Z,5.61
2023-02-04T16:11:18.318Z,5.52
2023-02-04T16:13:23.174Z,5.48
2023-02-04T16:15:28.541Z,5.39
2023-02-04T16:17:36.143Z,5.36
2023-02-04T16:19:40.984Z,5.34
2023-02-04T16:21:45.845Z,5.33
2023-02-04T16:23:50.736Z,5.23
2023-02-04T16:25:55.663Z,5.20
2023-02-04T16:28:00.641Z,5.18
2023-02-04T16:30:06.701Z,5.16
2023-02-04T16:32:11.553Z,5.12
2023-02-04T16:34:19.085Z,5.05
2023-02-04T16:36:24.006Z,4.98
2023-02-04T16:38:29.355Z,4.82
2023-02-04T16:40:34.180Z,4.79
2023-02-04T16:42:41.635Z,4.67
2023-02-04T16:44:46.640Z,4.60
2023-02-04T16:46:51.830Z,4.57
2023-02-04T16:48:56.409Z,4.57
2023-02-04T16:51:03.871Z,4.57
2023-02-04T16:53:10.586Z,4.57
2023-02-04T16:55:15.473Z,4.57
2023-02-04T16:57:20.337Z,4.56
2023-02-04T16:59:28.263Z,4.38
2023-02-04T17:01:33.967Z,4.41
2023-02-04T17:03:38.901Z,4.42
2023-02-04T17:05:48.143Z,4.43
2023-02-04T17:07:55.647Z,4.46
2023-02-04T17:10:00.937Z,4.39
2023-02-04T17:12:05.859Z,4.42
2023-02-04T17:14:15.879Z,4.34
2023-02-04T17:16:20.861Z,4.34
2023-02-04T17:18:26.214Z,4.31
2023-02-04T17:20:31.277Z,4.34
2023-02-04T17:22:36.240Z,4.40
2023-02-04T17:24:46.182Z,4.42
2023-02-04T17:26:50.999Z,4.39
2023-02-04T17:28:55.806Z,4.37
2023-02-04T17:31:00.877Z,4.41
2023-02-04T17:33:05.583Z,4.40
2023-02-04T17:35:11.129Z,4.41
2023-02-04T17:37:15.994Z,4.29
2023-02-04T17:39:20.822Z,4.25
2023-02-04T17:41:28.462Z,4.24
2023-02-04T17:43:34.441Z,4.26
2023-02-04T17:45:40.546Z,4.30
2023-02-04T17:47:47.610Z,4.33
2023-02-04T17:49:52.497Z,4.35
2023-02-04T17:51:57.356Z,4.35
2023-02-04T17:54:02.183Z,4.34
2023-02-04T17:56:09.056Z,4.26
2023-02-04T17:58:19.066Z,4.22
2023-02-04T18:00:28.194Z,4.19
2023-02-04T18:02:34.454Z,4.18
2023-02-04T18:04:41.615Z,4.19
2023-02-04T18:06:48.959Z,4.21
2023-02-04T18:09:01.395Z,4.18
2023-02-04T18:11:12.661Z,4.16
2023-02-04T18:13:22.156Z,4.13
2023-02-04T18:15:30.307Z,4.12
2023-02-04T18:17:35.782Z,4.09
2023-02-04T18:19:41.253Z,4.04
2023-02-04T18:21:46.759Z,3.96
2023-02-04T18:24:03.022Z,3.92
2023-02-04T18:26:15.819Z,3.89
2023-02-04T18:28:24.784Z,3.86
2023-02-04T18:30:29.615Z,3.81
2023-02-04T18:32:43.155Z,3.79
2023-02-04T18:34:49.809Z,3.74
2023-02-04T18:36:55.316Z,3.73
2023-02-04T18:39:00.090Z,3.70
2023-02-04T18:41:16.434Z,3.71
2023-02-04T18:43:27.756Z,3.72
2023-02-04T18:45:35.888Z,3.74
2023-02-04T18:47:40.869Z,3.68
2023-02-04T18:49:47.115Z,3.61
2023-02-04T18:51:53.482Z,3.52
2023-02-04T18:54:03.225Z,3.45
2023-02-04T18:56:15.922Z,3.38
2023-02-04T18:58:32.241Z,3.35
2023-02-04T19:00:37.027Z,3.30
2023-02-04T19:02:49.585Z,3.30
2023-02-04T19:05:12.076Z,3.28
2023-02-04T19:07:18.509Z,3.28
2023-02-04T19:09:30.421Z,3.25
2023-02-04T19:11:38.442Z,3.23
2023-02-04T19:13:45.859Z,3.24
2023-02-04T19:16:01.801Z,3.21
2023-02-04T19:18:18.984Z,3.17
2023-02-04T19:20:25.683Z,3.14
2023-02-04T19:22:43.424Z,3.05
2023-02-04T19:24:49.074Z,2.97
2023-02-04T19:26:57.884Z,2.86
2023-02-04T19:29:42.944Z,2.79
2023-02-04T19:31:49.100Z,2.73
2023-02-04T19:33:55.491Z,2.68
2023-02-04T19:36:01.442Z,2.68
2023-02-04T19:38:29.233Z,2.61
2023-02-04T19:40:35.817Z,2.53
2023-02-04T19:42:43.200Z,2.52
2023-02-04T19:44:50.775Z,2.50
2023-02-04T19:46:56.408Z,2.52
2023-02-04T19:49:01.546Z,2.52
2023-02-04T19:51:10.531Z,2.53
2023-02-04T19:53:21.198Z,2.47
2023-02-04T19:55:33.038Z,2.46
2023-02-04T19:57:41.249Z,2.45
2023-02-04T19:59:46.062Z,2.43
2023-02-04T20:02:03.495Z,2.41
2023-02-04T20:04:16.106Z,2.39
2023-02-04T20:06:30.232Z,2.42
2023-02-04T20:08:47.267Z,2.48
2023-02-04T20:10:52.243Z,2.54
2023-02-04T20:12:58.866Z,2.55
2023-02-04T20:15:05.180Z,2.52
2023-02-04T20:17:22.303Z,2.48
2023-02-04T20:19:37.938Z,2.41
2023-02-04T20:21:43.122Z,2.32
2023-02-04T20:23:47.993Z,2.28
2023-02-04T20:25:53.646Z,2.22
2023-02-04T20:28:01.138Z,2.15
2023-02-04T20:30:26.515Z,2.10
2023-02-04T20:32:41.075Z,1.92
2023-02-04T20:34:45.989Z,1.97
2023-02-04T20:36:52.408Z,2.03
2023-02-04T20:39:10.226Z,2.10
2023-02-04T20:41:18.948Z,2.13
2023-02-04T20:43:24.430Z,2.14
2023-02-04T20:45:34.278Z,2.19
2023-02-04T20:47:41.990Z,2.08
2023-02-04T20:49:54.089Z,2.03
2023-02-04T20:52:01.757Z,1.99
2023-02-04T20:54:14.455Z,1.98
2023-02-04T20:56:27.715Z,1.94
2023-02-04T20:58:38.443Z,1.92
2023-02-04T21:00:49.243Z,1.93
2023-02-04T21:02:57.344Z,1.90
2023-02-04T21:05:03.270Z,1.89
2023-02-04T21:07:19.120Z,1.89
2023-02-04T21:09:25.207Z,1.83
2023-02-04T21:11:30.894Z,1.80
2023-02-04T21:13:36.112Z,1.80
2023-02-04T21:15:43.613Z,1.80
2023-02-04T21:17:48.875Z,1.81
2023-02-04T21:19:56.759Z,1.85
2023-02-04T21:22:02.211Z,1.82
2023-02-04T21:24:08.439Z,1.74
2023-02-04T21:26:13.686Z,1.77
2023-02-04T21:28:19.635Z,1.78
2023-02-04T21:30:26.465Z,1.81
2023-02-04T21:32:31.356Z,1.81
2023-02-04T21:34:36.863Z,1.78
2023-02-04T21:36:49.463Z,1.69
2023-02-04T21:38:58.543Z,1.62
2023-02-04T21:41:09.020Z,1.52
2023-02-04T21:43:32.874Z,1.47
2023-02-04T21:45:56.636Z,1.52
2023-02-04T21:48:24.991Z,1.55
2023-02-04T21:50:48.033Z,1.55
2023-02-04T21:53:07.935Z,1.57
2023-02-04T21:55:24.655Z,1.58
2023-02-04T22:00:19.783Z,1.56
2023-02-04T22:02:31.246Z,1.57
2023-02-04T22:04:39.324Z,1.61
2023-02-04T22:06:46.508Z,1.58
2023-02-04T22:09:11.136Z,1.58
2023-02-04T22:11:28.433Z,1.57
2023-02-04T22:14:06.402Z,1.49
2023-02-04T22:16:30.717Z,1.46
2023-02-04T22:21:30.598Z,1.42
2023-02-04T22:23:36.893Z,1.42
2023-02-04T22:26:04.956Z,1.33
2023-02-04T22:28:18.721Z,1.19
2023-02-04T22:30:23.653Z,1.14
2023-02-04T22:32:34.583Z,1.09
2023-02-04T22:35:01.512Z,1.08
2023-02-04T22:37:14.065Z,1.05
2023-02-04T22:39:18.911Z,1.08
2023-02-04T22:41:26.522Z,1.15
2023-02-04T22:43:34.017Z,1.18
2023-02-04T22:45:39.241Z,1.12
2023-02-04T22:47:53.033Z,1.09
2023-02-04T22:49:58.374Z,1.06
2023-02-04T22:52:03.239Z,1.00
2023-02-04T22:54:12.464Z,0.99
2023-02-04T22:56:29.931Z,0.94
2023-02-04T22:58:53.095Z,0.96
2023-02-04T23:01:16.861Z,1.02
2023-02-04T23:03:28.262Z,0.93
2023-02-04T23:05:39.526Z,0.87
2023-02-04T23:07:49.426Z,0.92
2023-02-04T23:09:54.348Z,1.01
2023-02-04T23:12:13.808Z,1.06
2023-02-04T23:14:24.834Z,1.09
2023-02-04T23:16:36.634Z,1.13
2023-02-04T23:18:47.488Z,1.17
2023-02-04T23:21:00.160Z,1.19
2023-02-04T23:23:20.661Z,1.20
2023-02-04T23:25:28.181Z,1.18
2023-02-04T23:27:39.051Z,1.17
2023-02-04T23:29:51.172Z,1.13
2023-02-04T23:31:56.027Z,1.09
2023-02-04T23:34:05.865Z,1.06
2023-02-04T23:36:30.194Z,1.01
2023-02-04T23:38:46.963Z,0.97
2023-02-04T23:41:03.895Z,0.95
2023-02-04T23:43:20.095Z,0.94
2023-02-04T23:45:29.074Z,0.93
2023-02-04T23:47:47.764Z,0.96
2023-02-04T23:49:52.638Z,0.98
2023-02-04T23:51:57.428Z,0.96
2023-02-04T23:54:02.759Z,0.96
2023-02-04T23:56:08.214Z,0.93
2023-02-04T23:58:13.073Z,0.83
